Time;durP1;ratioP1;P1;durP2;ratioP2;P2;SDS_P1;SDS_P2;PMS_P1;PMS_P2;Temp;Humidity;BMP_temperature;BMP_pressure;BME280_temperature;BME280_humidity;BME280_pressure;Samples;Min_cycle;Max_cycle;Signal;HPM_P1;HPM_P2
2022/10/31 00:01:16;;;;;;;2.40;1.62;;;12.30;99.90;;;;;;4381910;32;20082;-72
2022/10/31 00:03:41;;;;;;;2.10;1.60;;;12.30;99.90;;;;;;4364359;32;20091;-72
2022/10/31 00:06:07;;;;;;;5.97;1.92;;;12.30;99.90;;;;;;4356950;32;20079;-74
2022/10/31 00:08:32;;;;;;;4.68;1.70;;;12.30;99.90;;;;;;4368957;32;20082;-72
2022/10/31 00:10:58;;;;;;;3.37;1.55;;;12.30;99.90;;;;;;4375437;32;20129;-72
2022/10/31 00:13:23;;;;;;;4.90;1.83;;;12.20;99.90;;;;;;4373772;32;20136;-72
2022/10/31 00:15:49;;;;;;;4.00;2.42;;;12.20;99.90;;;;;;4373424;32;20082;-73
2022/10/31 00:18:15;;;;;;;1.02;0.95;;;12.20;99.90;;;;;;4373295;32;20066;-72
2022/10/31 00:20:40;;;;;;;5.10;1.45;;;12.20;99.90;;;;;;4375493;32;20085;-72
2022/10/31 00:23:07;;;;;;;1.10;0.98;;;12.10;99.90;;;;;;4372643;32;20092;-72
2022/10/31 00:25:36;;;;;;;1.33;1.23;;;12.10;99.90;;;;;;4372024;32;20075;-73
2022/10/31 00:28:03;;;;;;;8.63;1.02;;;12.00;99.90;;;;;;4370817;32;20149;-73
2022/10/31 00:30:29;;;;;;;2.00;1.45;;;12.10;99.90;;;;;;4375022;32;20106;-72
2022/10/31 00:32:54;;;;;;;1.10;1.08;;;12.10;99.90;;;;;;4366927;32;20067;-74
2022/10/31 00:35:20;;;;;;;6.18;2.30;;;12.10;99.90;;;;;;4354775;32;20152;-74
2022/10/31 00:37:45;;;;;;;7.97;1.85;;;12.10;99.90;;;;;;4364510;32;20114;-72
2022/10/31 00:40:11;;;;;;;5.35;2.05;;;12.10;99.90;;;;;;4370510;32;20110;-73
2022/10/31 00:42:38;;;;;;;3.03;1.58;;;12.00;99.90;;;;;;4370237;32;21257;-73
2022/10/31 00:45:04;;;;;;;2.62;1.50;;;12.00;99.90;;;;;;4371967;32;20527;-72
2022/10/31 00:47:29;;;;;;;3.33;2.40;;;12.10;99.90;;;;;;4369593;32;20117;-72
2022/10/31 00:49:55;;;;;;;2.70;1.58;;;12.10;99.90;;;;;;4370385;32;20579;-73
2022/10/31 00:52:20;;;;;;;1.17;1.10;;;12.20;99.90;;;;;;4366481;32;20441;-72
2022/10/31 00:54:45;;;;;;;1.23;1.12;;;12.30;99.90;;;;;;4373430;32;20130;-73
2022/10/31 00:57:11;;;;;;;1.52;1.27;;;12.30;99.90;;;;;;4373083;32;20082;-73
2022/10/31 00:59:36;;;;;;;2.70;1.70;;;12.30;99.90;;;;;;4375370;32;20065;-73
2022/10/31 01:02:02;;;;;;;3.28;1.90;;;12.40;99.90;;;;;;4373845;32;20531;-73
2022/10/31 01:04:27;;;;;;;4.28;2.22;;;12.40;99.90;;;;;;4358711;32;20102;-74
2022/10/31 01:06:53;;;;;;;3.10;1.77;;;12.40;99.90;;;;;;4363873;32;20082;-73
2022/10/31 01:09:18;;;;;;;1.85;1.40;;;12.40;99.90;;;;;;4376359;32;20066;-73
2022/10/31 01:11:44;;;;;;;13.32;4.72;;;12.50;99.90;;;;;;4373888;32;20567;-71
2022/10/31 01:14:10;;;;;;;1.30;1.20;;;12.50;99.90;;;;;;4373615;32;20102;-72
2022/10/31 01:16:36;;;;;;;0.65;0.65;;;12.40;99.90;;;;;;4376841;32;20417;-72
2022/10/31 01:19:01;;;;;;;4.40;1.48;;;12.30;99.90;;;;;;4374949;32;20086;-74
2022/10/31 01:21:29;;;;;;;0.82;0.82;;;12.20;99.90;;;;;;4377949;32;20087;-73
2022/10/31 01:23:55;;;;;;;3.53;1.37;;;12.10;99.90;;;;;;4380597;32;20102;-72
2022/10/31 01:26:23;;;;;;;3.03;1.67;;;12.20;99.90;;;;;;4376756;32;20066;-72
2022/10/31 01:28:53;;;;;;;1.73;1.27;;;12.10;99.90;;;;;;4373938;32;20078;-72
2022/10/31 01:31:20;;;;;;;4.32;1.85;;;12.10;99.90;;;;;;4376501;32;20063;-73
2022/10/31 01:33:46;;;;;;;19.02;2.60;;;12.10;99.90;;;;;;4367542;32;20525;-73
2022/10/31 01:36:19;;;;;;;2.90;1.67;;;12.10;99.90;;;;;;4360360;32;20133;-74
2022/10/31 01:38:46;;;;;;;1.33;1.23;;;12.10;99.90;;;;;;4374852;32;20086;-72
2022/10/31 01:41:15;;;;;;;11.82;1.67;;;12.10;99.90;;;;;;4376771;32;20059;-73
2022/10/31 01:43:46;;;;;;;1.62;1.30;;;12.10;99.90;;;;;;4374132;32;20075;-74
2022/10/31 01:46:13;;;;;;;1.42;1.08;;;12.10;99.90;;;;;;4377359;32;20514;-72
2022/10/31 01:48:40;;;;;;;2.37;1.02;;;12.10;99.90;;;;;;4373375;32;20087;-73
2022/10/31 01:51:06;;;;;;;2.75;1.52;;;12.00;99.90;;;;;;4377310;32;20054;-73
2022/10/31 01:53:33;;;;;;;2.97;1.65;;;12.10;99.90;;;;;;4374306;32;20063;-72
2022/10/31 01:55:59;;;;;;;6.53;1.00;;;12.20;99.90;;;;;;4375496;32;20117;-73
2022/10/31 01:58:28;;;;;;;3.35;1.85;;;12.20;99.90;;;;;;4377433;32;20096;-73
2022/10/31 02:00:58;;;;;;;1.40;1.25;;;12.20;99.90;;;;;;4373471;32;20100;-73
2022/10/31 02:03:25;;;;;;;2.80;1.95;;;12.20;99.90;;;;;;4365633;32;21373;-74
2022/10/31 02:05:54;;;;;;;1.62;1.48;;;12.30;99.90;;;;;;4356968;32;20276;-74
2022/10/31 02:08:25;;;;;;;1.05;1.00;;;12.30;99.90;;;;;;4370421;32;20059;-73
2022/10/31 02:10:52;;;;;;;1.23;1.10;;;12.30;99.90;;;;;;4372167;32;20078;-72
2022/10/31 02:13:18;;;;;;;1.33;1.08;;;12.40;99.90;;;;;;4370906;32;20086;-72
2022/10/31 02:15:48;;;;;;;1.17;1.00;;;12.30;99.90;;;;;;4380750;32;20078;-73
2022/10/31 02:18:14;;;;;;;13.43;2.83;;;12.20;99.90;;;;;;4371615;32;20078;-73
2022/10/31 02:21:01;;;;;;;4.05;1.65;;;12.10;99.90;;;;;;4372894;32;20537;-73
2022/10/31 02:23:40;;;;;;;1.65;1.48;;;11.90;99.90;;;;;;4369911;32;20103;-71
2022/10/31 02:26:31;;;;;;;1.05;1.00;;;11.80;99.90;;;;;;4376051;32;20111;-71
2022/10/31 02:29:19;;;;;;;1.95;1.67;;;11.70;99.90;;;;;;4374503;32;20424;-72
2022/10/31 02:31:59;;;;;;;3.90;1.40;;;11.80;99.90;;;;;;4374876;32;20106;-72
2022/10/31 02:34:32;;;;;;;1.17;0.98;;;11.70;99.90;;;;;;4353488;32;20534;-72
2022/10/31 02:37:12;;;;;;;0.80;0.80;;;11.70;99.90;;;;;;4363742;32;20062;-72
2022/10/31 02:39:49;;;;;;;2.63;1.57;;;11.70;99.90;;;;;;4376380;32;20074;-71
2022/10/31 02:42:30;;;;;;;9.98;2.08;;;11.80;99.90;;;;;;4373689;32;20523;-72
2022/10/31 02:45:07;;;;;;;10.05;3.17;;;11.80;99.90;;;;;;4375588;32;20058;-72
2022/10/31 02:47:37;;;;;;;1.15;1.05;;;11.80;99.90;;;;;;4374478;32;20137;-72
2022/10/31 02:50:22;;;;;;;1.30;1.08;;;11.90;99.90;;;;;;4371848;32;20078;-72
2022/10/31 02:52:52;;;;;;;1.42;1.12;;;11.90;99.90;;;;;;4362095;32;20086;-72
2022/10/31 02:55:27;;;;;;;2.00;1.55;;;11.90;99.90;;;;;;4375899;32;20639;-72
2022/10/31 02:58:00;;;;;;;6.40;1.48;;;11.90;99.90;;;;;;4372618;32;20070;-72
2022/10/31 03:00:25;;;;;;;1.70;0.90;;;11.80;99.90;;;;;;4374590;32;20091;-72
2022/10/31 03:03:23;;;;;;;1.50;0.90;;;11.70;99.90;;;;;;4371746;32;20105;-73
2022/10/31 03:05:54;;;;;;;2.00;1.52;;;11.80;99.90;;;;;;4346814;32;20524;-72
2022/10/31 03:08:34;;;;;;;1.17;1.08;;;11.70;99.90;;;;;;4370438;32;20094;-71
2022/10/31 03:11:03;;;;;;;2.42;1.90;;;11.60;99.90;;;;;;4374000;32;20078;-72
2022/10/31 03:13:51;;;;;;;1.17;0.98;;;11.60;99.90;;;;;;4371439;32;20074;-73
2022/10/31 03:16:32;;;;;;;0.60;0.60;;;11.60;99.90;;;;;;4362107;32;20123;-72
2022/10/31 03:19:07;;;;;;;5.78;1.17;;;11.60;99.90;;;;;;4372417;32;20083;-73
2022/10/31 03:21:42;;;;;;;1.98;1.20;;;11.60;99.90;;;;;;4373128;32;20087;-73
2022/10/31 03:24:09;;;;;;;1.90;1.05;;;11.50;99.90;;;;;;4374627;32;20293;-72
2022/10/31 03:26:38;;;;;;;2.83;1.20;;;11.40;99.90;;;;;;4370813;32;20067;-73
2022/10/31 03:29:07;;;;;;;7.87;2.05;;;11.40;99.90;;;;;;4373268;32;21261;-72
2022/10/31 03:31:38;;;;;;;1.27;0.93;;;11.40;99.90;;;;;;4376951;32;20428;-73
2022/10/31 03:34:05;;;;;;;1.48;1.15;;;11.50;99.90;;;;;;4358969;32;20734;-73
2022/10/31 03:36:34;;;;;;;1.45;1.30;;;11.50;99.90;;;;;;4361326;32;20159;-73
2022/10/31 03:39:03;;;;;;;27.08;1.60;;;11.50;99.90;;;;;;4371525;32;20058;-72
2022/10/31 03:41:34;;;;;;;1.80;1.52;;;11.60;99.90;;;;;;4373220;32;20086;-73
2022/10/31 03:44:07;;;;;;;6.60;2.25;;;11.50;99.90;;;;;;4373727;32;20487;-73
2022/10/31 03:46:33;;;;;;;4.50;2.40;;;11.50;99.90;;;;;;4372108;32;20123;-72
2022/10/31 03:48:59;;;;;;;1.33;1.20;;;11.40;99.90;;;;;;4372131;32;20622;-73
2022/10/31 03:51:42;;;;;;;1.45;1.35;;;11.40;99.90;;;;;;4372801;32;20067;-72
2022/10/31 03:54:22;;;;;;;5.78;2.05;;;11.40;99.90;;;;;;4375651;32;20094;-73
2022/10/31 03:56:57;;;;;;;3.00;1.30;;;11.40;99.90;;;;;;4377655;32;20137;-73
2022/10/31 03:59:29;;;;;;;2.40;1.92;;;11.30;99.90;;;;;;4373519;32;20114;-73
2022/10/31 04:02:00;;;;;;;1.98;1.00;;;11.30;99.90;;;;;;4370991;32;20074;-72
2022/10/31 04:04:28;;;;;;;1.45;1.35;;;11.40;99.90;;;;;;4356984;32;20539;-71
2022/10/31 04:06:56;;;;;;;3.08;2.05;;;11.40;99.90;;;;;;4361544;32;20153;-72
2022/10/31 04:09:22;;;;;;;0.68;0.68;;;11.40;99.90;;;;;;4372034;32;20066;-72
2022/10/31 04:11:51;;;;;;;2.37;1.65;;;11.30;99.90;;;;;;4373851;32;20074;-73
2022/10/31 04:14:17;;;;;;;21.05;2.97;;;11.30;99.90;;;;;;4378747;32;20087;-72
2022/10/31 04:16:43;;;;;;;1.77;1.33;;;11.20;99.90;;;;;;4371123;32;20130;-72
2022/10/31 04:19:11;;;;;;;1.05;1.02;;;11.20;99.90;;;;;;4374919;32;20124;-72
2022/10/31 04:21:36;;;;;;;1.60;1.30;;;11.10;99.90;;;;;;4371315;32;20074;-72
2022/10/31 04:24:01;;;;;;;1.75;0.98;;;11.20;99.90;;;;;;4372781;32;20129;-72
2022/10/31 04:26:27;;;;;;;1.35;1.23;;;11.20;99.90;;;;;;4372361;32;20079;-71
2022/10/31 04:28:52;;;;;;;0.82;0.80;;;11.10;99.90;;;;;;4376911;32;20569;-71
2022/10/31 04:31:18;;;;;;;1.42;1.00;;;11.20;99.90;;;;;;4373910;32;20089;-72
2022/10/31 04:33:44;;;;;;;0.70;0.70;;;11.20;99.90;;;;;;4362476;32;20075;-73
2022/10/31 04:36:09;;;;;;;0.80;0.80;;;11.20;99.90;;;;;;4360210;32;20776;-72
2022/10/31 04:38:35;;;;;;;2.85;1.02;;;11.20;99.90;;;;;;4372427;32;20078;-72
2022/10/31 04:41:00;;;;;;;1.52;1.02;;;11.20;99.90;;;;;;4374243;32;20502;-73
2022/10/31 04:43:26;;;;;;;8.82;1.98;;;11.20;99.90;;;;;;4374900;32;20070;-72
2022/10/31 04:45:51;;;;;;;1.35;1.25;;;11.20;99.90;;;;;;4374419;32;20095;-73
2022/10/31 04:48:17;;;;;;;0.77;0.68;;;11.10;99.90;;;;;;4375434;32;20109;-73
2022/10/31 04:50:42;;;;;;;16.17;2.22;;;11.00;99.90;;;;;;4374052;32;20082;-72
2022/10/31 04:53:08;;;;;;;1.35;1.02;;;10.90;99.90;;;;;;4377896;32;20066;-73
2022/10/31 04:55:35;;;;;;;2.30;0.93;;;10.90;99.90;;;;;;4374835;32;20086;-72
2022/10/31 04:58:00;;;;;;;7.03;2.78;;;10.90;99.90;;;;;;4378031;32;20062;-72
2022/10/31 05:00:26;;;;;;;1.10;1.05;;;10.80;99.90;;;;;;4374146;32;20082;-73
2022/10/31 05:02:54;;;;;;;22.52;1.95;;;10.80;99.90;;;;;;4366250;32;20082;-74
2022/10/31 05:05:23;;;;;;;2.40;1.48;;;10.70;99.90;;;;;;4354121;32;20083;-72
2022/10/31 05:07:50;;;;;;;0.57;0.57;;;10.70;99.90;;;;;;4358733;32;20079;-73
2022/10/31 05:10:18;;;;;;;5.80;2.05;;;10.70;99.90;;;;;;4368044;32;20495;-73
2022/10/31 05:12:48;;;;;;;2.22;2.03;;;10.70;99.90;;;;;;4361791;32;20177;-74
2022/10/31 05:15:15;;;;;;;2.37;1.27;;;10.80;99.90;;;;;;4363308;32;20070;-72
2022/10/31 05:17:40;;;;;;;0.93;0.88;;;10.80;99.90;;;;;;4367756;32;20063;-72
2022/10/31 05:20:06;;;;;;;1.60;1.50;;;10.80;99.90;;;;;;4369890;32;20098;-74
2022/10/31 05:22:31;;;;;;;1.45;1.10;;;10.90;99.90;;;;;;4365206;32;20580;-73
2022/10/31 05:24:57;;;;;;;9.02;1.92;;;10.90;99.90;;;;;;4367214;32;20071;-73
2022/10/31 05:27:22;;;;;;;5.85;2.08;;;10.90;99.90;;;;;;4371571;32;20099;-74
2022/10/31 05:29:48;;;;;;;0.90;0.90;;;10.90;99.90;;;;;;4375834;32;20085;-72
2022/10/31 05:32:13;;;;;;;1.85;1.35;;;10.90;99.90;;;;;;4369691;32;20467;-74
2022/10/31 05:34:39;;;;;;;1.67;1.58;;;10.80;99.90;;;;;;4348186;32;20089;-73
2022/10/31 05:37:04;;;;;;;1.20;1.05;;;10.70;99.90;;;;;;4359678;32;20574;-72
2022/10/31 05:39:30;;;;;;;1.05;1.00;;;10.70;99.90;;;;;;4371519;32;20111;-73
2022/10/31 05:41:55;;;;;;;1.23;1.12;;;10.70;99.90;;;;;;4372083;32;20094;-74
2022/10/31 05:44:21;;;;;;;4.62;1.62;;;10.60;99.90;;;;;;4366060;32;20435;-74
2022/10/31 05:46:47;;;;;;;1.40;0.90;;;10.60;99.90;;;;;;4368257;32;20086;-72
2022/10/31 05:49:12;;;;;;;9.70;1.02;;;10.60;99.90;;;;;;4374685;32;20074;-73
2022/10/31 05:51:39;;;;;;;1.20;1.02;;;10.70;99.90;;;;;;4377356;32;20090;-71
2022/10/31 05:54:04;;;;;;;1.48;1.37;;;10.70;99.90;;;;;;4374938;32;20576;-73
2022/10/31 05:56:30;;;;;;;1.85;1.35;;;10.60;99.90;;;;;;4375012;32;20059;-73
2022/10/31 05:58:55;;;;;;;4.30;1.80;;;10.60;99.90;;;;;;4372796;32;20071;-71
2022/10/31 06:01:21;;;;;;;1.95;1.37;;;10.70;99.90;;;;;;4376649;32;20423;-72
2022/10/31 06:03:46;;;;;;;1.08;0.95;;;10.70;99.90;;;;;;4353591;32;20095;-73
2022/10/31 06:06:12;;;;;;;1.92;1.15;;;10.70;99.90;;;;;;4358048;32;20579;-73
2022/10/31 06:08:37;;;;;;;1.23;1.10;;;10.70;99.90;;;;;;4370166;32;20223;-71
2022/10/31 06:11:03;;;;;;;3.40;1.55;;;10.80;99.90;;;;;;4373812;32;20117;-72
2022/10/31 06:13:29;;;;;;;2.25;1.12;;;10.80;99.90;;;;;;4364054;32;20086;-74
2022/10/31 06:15:55;;;;;;;11.40;2.67;;;10.80;99.90;;;;;;4359006;32;20137;-74
2022/10/31 06:18:20;;;;;;;2.87;1.40;;;10.80;99.90;;;;;;4371351;32;20087;-73
2022/10/31 06:20:46;;;;;;;0.80;0.80;;;10.80;99.90;;;;;;4374555;32;20062;-73
2022/10/31 06:23:11;;;;;;;1.15;1.10;;;10.80;99.90;;;;;;4373339;32;20091;-74
2022/10/31 06:25:37;;;;;;;1.70;0.95;;;10.90;99.90;;;;;;4370298;32;20095;-72
2022/10/31 06:28:02;;;;;;;2.78;1.25;;;10.80;99.90;;;;;;4377264;32;20070;-74
2022/10/31 06:30:28;;;;;;;2.62;1.08;;;10.80;99.90;;;;;;4375597;32;20481;-73
2022/10/31 06:32:53;;;;;;;1.33;0.65;;;10.90;99.90;;;;;;4363841;32;20566;-74
2022/10/31 06:35:19;;;;;;;1.80;1.20;;;10.90;99.90;;;;;;4349364;32;20413;-73
2022/10/31 06:37:53;;;;;;;1.27;1.02;;;11.00;99.90;;;;;;4363578;32;20106;-73
2022/10/31 06:40:19;;;;;;;0.50;0.50;;;11.00;99.90;;;;;;4374088;32;20074;-72
2022/10/31 06:42:44;;;;;;;1.40;1.30;;;10.90;99.90;;;;;;4367391;32;20941;-73
2022/10/31 06:45:09;;;;;;;2.45;0.90;;;10.90;99.90;;;;;;4362210;32;20059;-73
2022/10/31 06:47:35;;;;;;;5.28;2.50;;;11.00;99.90;;;;;;4366355;32;20543;-73
2022/10/31 06:50:00;;;;;;;0.75;0.60;;;11.10;99.90;;;;;;4376520;32;20171;-73
2022/10/31 06:52:26;;;;;;;1.33;1.20;;;11.10;99.90;;;;;;4371643;32;20087;-74
2022/10/31 06:54:51;;;;;;;9.07;2.90;;;11.20;99.90;;;;;;4375320;32;20063;-73
2022/10/31 06:57:17;;;;;;;4.78;1.35;;;11.20;99.90;;;;;;4372361;32;20086;-72
2022/10/31 06:59:42;;;;;;;1.40;1.12;;;11.30;99.90;;;;;;4374306;32;20579;-73
2022/10/31 07:02:10;;;;;;;2.80;1.42;;;11.40;99.90;;;;;;4366670;32;20078;-73
2022/10/31 07:04:35;;;;;;;1.80;1.52;;;11.40;99.90;;;;;;4349196;32;20144;-75
2022/10/31 07:07:01;;;;;;;8.93;1.85;;;11.40;99.90;;;;;;4358458;32;20106;-74
2022/10/31 07:09:26;;;;;;;4.28;1.20;;;11.50;99.90;;;;;;4373218;32;20255;-72
2022/10/31 07:11:53;;;;;;;3.97;2.47;;;11.60;99.90;;;;;;4373918;32;20086;-74
2022/10/31 07:14:18;;;;;;;1.90;1.65;;;11.80;99.90;;;;;;4361039;32;20098;-72
2022/10/31 07:16:47;;;;;;;1.37;1.27;;;11.90;99.90;;;;;;4366889;32;20082;-73
2022/10/31 07:19:13;;;;;;;1.95;1.75;;;12.00;99.90;;;;;;4373763;32;20455;-71
2022/10/31 07:21:38;;;;;;;3.25;2.22;;;12.10;99.90;;;;;;4377145;32;20087;-73
2022/10/31 07:24:04;;;;;;;3.03;1.58;;;12.40;99.90;;;;;;4373410;32;20518;-73
2022/10/31 07:26:29;;;;;;;5.15;1.10;;;12.60;99.90;;;;;;4374300;32;20094;-73
2022/10/31 07:28:56;;;;;;;0.98;0.95;;;12.70;99.90;;;;;;4372702;32;20549;-72
2022/10/31 07:31:22;;;;;;;1.58;1.27;;;12.90;99.90;;;;;;4370021;32;20118;-74
2022/10/31 07:33:47;;;;;;;14.00;2.72;;;13.00;99.90;;;;;;4345160;32;20495;-74
2022/10/31 07:36:12;;;;;;;0.93;0.90;;;13.10;99.90;;;;;;4350383;32;20111;-73
2022/10/31 07:38:38;;;;;;;0.57;0.57;;;13.20;99.90;;;;;;4371653;32;20106;-72
2022/10/31 07:41:04;;;;;;;1.05;0.98;;;13.30;99.90;;;;;;4373878;32;20094;-73
2022/10/31 07:43:29;;;;;;;5.30;2.97;;;13.40;99.90;;;;;;4363585;32;20138;-74
2022/10/31 07:45:55;;;;;;;1.35;1.08;;;13.50;99.90;;;;;;4363709;32;20303;-72
2022/10/31 07:48:20;;;;;;;3.12;1.15;;;13.60;99.90;;;;;;4368115;32;20181;-73
2022/10/31 07:50:46;;;;;;;26.48;1.42;;;13.70;99.90;;;;;;4369527;32;20090;-73
2022/10/31 07:53:13;;;;;;;5.45;0.88;;;13.70;99.90;;;;;;4372553;32;20412;-73
2022/10/31 07:55:39;;;;;;;2.15;1.12;;;13.80;99.90;;;;;;4374175;32;20070;-73
2022/10/31 07:58:07;;;;;;;2.35;1.52;;;13.90;99.90;;;;;;4366977;32;20058;-73
2022/10/31 08:00:34;;;;;;;9.30;2.05;;;14.00;99.90;;;;;;4374077;32;20099;-73
2022/10/31 08:03:03;;;;;;;1.67;1.20;;;14.00;99.90;;;;;;4356669;32;20086;-74
2022/10/31 08:05:30;;;;;;;1.17;1.08;;;14.00;99.90;;;;;;4342293;32;20229;-73
2022/10/31 08:07:56;;;;;;;3.08;1.62;;;14.00;99.90;;;;;;4363152;32;20458;-73
2022/10/31 08:10:22;;;;;;;1.95;1.50;;;14.00;99.90;;;;;;4372230;32;20075;-73
2022/10/31 08:12:55;;;;;;;4.95;2.00;;;14.00;99.90;;;;;;4367234;32;20418;-73
2022/10/31 08:15:20;;;;;;;1.15;0.77;;;14.00;99.90;;;;;;4363215;32;20087;-73
2022/10/31 08:17:46;;;;;;;1.40;1.05;;;14.10;99.90;;;;;;4366493;32;20070;-73
2022/10/31 08:20:11;;;;;;;3.22;1.77;;;14.00;99.90;;;;;;4371277;32;20083;-74
2022/10/31 08:22:37;;;;;;;0.82;0.82;;;14.00;99.90;;;;;;4373689;32;20075;-72
2022/10/31 08:25:02;;;;;;;2.03;1.27;;;14.00;99.90;;;;;;4373193;32;20483;-74
2022/10/31 08:27:28;;;;;;;2.58;1.33;;;14.00;99.90;;;;;;4374503;32;20301;-73
2022/10/31 08:29:53;;;;;;;2.10;1.25;;;14.10;99.90;;;;;;4371190;32;20404;-72
2022/10/31 08:32:19;;;;;;;2.47;0.80;;;14.10;99.90;;;;;;4367453;32;20399;-73
2022/10/31 08:34:44;;;;;;;3.03;0.90;;;14.10;99.90;;;;;;4347684;32;83994;-74
2022/10/31 08:37:10;;;;;;;5.62;1.58;;;14.10;99.90;;;;;;4355581;32;20066;-74
2022/10/31 08:39:35;;;;;;;0.90;0.90;;;14.10;99.90;;;;;;4372532;32;20086;-73
2022/10/31 08:42:01;;;;;;;2.10;1.58;;;14.10;99.90;;;;;;4370802;32;20071;-73
2022/10/31 08:44:26;;;;;;;1.30;1.10;;;14.10;99.90;;;;;;4362822;32;20074;-74
2022/10/31 08:46:52;;;;;;;4.18;1.90;;;14.20;99.90;;;;;;4364693;32;20182;-73
2022/10/31 08:49:17;;;;;;;1.35;0.90;;;14.30;99.90;;;;;;4370579;32;20433;-73
2022/10/31 08:51:42;;;;;;;4.93;2.35;;;14.30;99.90;;;;;;4373535;32;20102;-72
2022/10/31 08:54:08;;;;;;;1.85;1.25;;;14.40;99.90;;;;;;4370409;32;20075;-72
2022/10/31 08:56:33;;;;;;;5.60;1.55;;;14.30;99.90;;;;;;4371671;32;20062;-73
2022/10/31 08:58:59;;;;;;;2.92;1.23;;;14.30;99.90;;;;;;4374101;32;20119;-73
2022/10/31 09:01:24;;;;;;;0.80;0.80;;;14.50;99.90;;;;;;4371610;32;20066;-73
2022/10/31 09:03:50;;;;;;;4.75;2.25;;;14.50;99.90;;;;;;4351853;32;20804;-74
2022/10/31 09:06:15;;;;;;;1.25;1.15;;;14.60;99.90;;;;;;4346611;32;20090;-74
2022/10/31 09:08:41;;;;;;;3.10;1.92;;;14.80;99.90;;;;;;4371916;32;20094;-73
2022/10/31 09:11:07;;;;;;;3.50;1.77;;;14.80;99.90;;;;;;4370183;32;20339;-72
2022/10/31 09:13:32;;;;;;;4.60;1.77;;;14.80;99.90;;;;;;4362695;32;20075;-74
2022/10/31 09:15:58;;;;;;;5.18;2.00;;;14.80;99.90;;;;;;4361518;32;20546;-73
2022/10/31 09:18:27;;;;;;;2.60;1.42;;;14.70;99.90;;;;;;4375433;32;20083;-71
2022/10/31 09:20:52;;;;;;;5.03;2.03;;;14.70;99.90;;;;;;4374187;32;20099;-72
2022/10/31 09:23:20;;;;;;;4.35;2.42;;;14.70;99.90;;;;;;4380115;32;20509;-72
2022/10/31 09:25:47;;;;;;;0.90;0.90;;;14.70;99.90;;;;;;4372654;32;20483;-71
2022/10/31 09:28:14;;;;;;;5.95;2.12;;;14.70;99.90;;;;;;4377575;32;20538;-72
2022/10/31 09:30:40;;;;;;;2.08;1.42;;;14.70;99.90;;;;;;4377394;32;20129;-72
2022/10/31 09:33:09;;;;;;;2.53;1.55;;;14.70;99.90;;;;;;4360342;32;20469;-73
2022/10/31 09:35:35;;;;;;;0.85;0.85;;;14.80;99.90;;;;;;4345476;32;20062;-73
2022/10/31 09:38:03;;;;;;;3.30;1.60;;;14.90;99.90;;;;;;4370666;32;20187;-71
2022/10/31 09:40:35;;;;;;;1.15;1.08;;;15.00;99.90;;;;;;4372526;32;20067;-71
2022/10/31 09:43:40;;;;;;;1.65;1.17;;;15.10;99.90;;;;;;4367031;32;20082;-72
2022/10/31 09:46:16;;;;;;;3.22;1.92;;;15.20;99.90;;;;;;4351245;32;20835;-74
2022/10/31 09:48:51;;;;;;;5.20;3.03;;;15.10;99.90;;;;;;4372558;32;20509;-74
2022/10/31 09:51:30;;;;;;;5.80;1.98;;;15.10;99.90;;;;;;4374800;32;20086;-73
2022/10/31 09:54:05;;;;;;;3.90;1.42;;;15.00;99.90;;;;;;4374692;32;20098;-74
2022/10/31 09:56:32;;;;;;;5.20;1.90;;;15.00;99.90;;;;;;4371488;32;20083;-73
2022/10/31 09:59:00;;;;;;;5.30;1.80;;;14.90;99.90;;;;;;4379351;32;20078;-73
2022/10/31 10:01:38;;;;;;;1.48;1.05;;;15.00;99.90;;;;;;4376827;32;20467;-75
2022/10/31 10:04:17;;;;;;;5.78;1.33;;;15.10;99.90;;;;;;4349246;32;20363;-75
2022/10/31 10:06:46;;;;;;;2.35;1.15;;;15.30;99.90;;;;;;4357253;32;21350;-73
2022/10/31 10:09:12;;;;;;;1.80;1.02;;;15.40;99.90;;;;;;4374689;32;20396;-73
2022/10/31 10:11:45;;;;;;;2.62;2.12;;;15.50;99.90;;;;;;4372521;32;20082;-74
2022/10/31 10:14:37;;;;;;;1.85;1.40;;;15.50;99.90;;;;;;4358843;32;20079;-75
2022/10/31 10:17:43;;;;;;;2.72;1.95;;;15.50;99.90;;;;;;4359390;32;20090;-73
2022/10/31 10:20:23;;;;;;;1.95;1.20;;;15.50;99.90;;;;;;4364058;32;20090;-73
2022/10/31 10:22:57;;;;;;;4.10;2.00;;;15.60;99.90;;;;;;4373390;32;20143;-73
2022/10/31 10:25:34;;;;;;;6.15;2.60;;;15.60;99.90;;;;;;4371895;32;20094;-73
2022/10/31 10:28:21;;;;;;;2.05;1.45;;;15.70;99.90;;;;;;4371702;32;20071;-74
2022/10/31 10:30:59;;;;;;;4.20;1.35;;;15.70;99.90;;;;;;4363296;32;20476;-74
2022/10/31 10:34:03;;;;;;;10.18;2.30;;;15.90;99.90;;;;;;4355120;32;20285;-74
2022/10/31 10:36:38;;;;;;;3.90;2.22;;;16.00;99.90;;;;;;4343703;32;20132;-75
2022/10/31 10:39:13;;;;;;;4.37;1.67;;;16.20;99.90;;;;;;4373610;32;20090;-73
2022/10/31 10:41:43;;;;;;;2.78;1.50;;;16.30;99.90;;;;;;4373286;32;20185;-74
2022/10/31 10:44:10;;;;;;;6.85;1.75;;;16.40;99.90;;;;;;4362621;32;20078;-74
2022/10/31 10:47:51;;;;;;;1.08;0.95;;;16.50;99.90;;;;;;4366563;32;20150;-74
2022/10/31 10:49:48;;;;;;;12.52;1.33;;;16.70;99.90;;;;;;4363214;32;20139;-73
2022/10/31 10:52:30;;;;;;;2.53;1.50;;;16.90;99.90;;;;;;4373344;32;20107;-73
2022/10/31 10:55:20;;;;;;;2.62;1.25;;;17.00;99.90;;;;;;4377117;32;20066;-74
2022/10/31 10:57:58;;;;;;;1.92;1.30;;;17.10;99.90;;;;;;4363289;32;20070;-73
2022/10/31 11:00:27;;;;;;;1.12;0.90;;;17.30;99.90;;;;;;4375064;32;20066;-74
2022/10/31 11:02:54;;;;;;;1.90;1.37;;;17.40;99.90;;;;;;4360291;32;20536;-75
2022/10/31 11:05:44;;;;;;;6.18;1.52;;;17.50;99.90;;;;;;4345975;32;20129;-75
2022/10/31 11:08:22;;;;;;;20.12;2.55;;;17.60;99.90;;;;;;4356906;32;20428;-74
2022/10/31 11:11:01;;;;;;;1.70;1.33;;;17.80;99.90;;;;;;4376780;32;20436;-73
2022/10/31 11:13:27;;;;;;;2.50;1.70;;;18.10;99.90;;;;;;4361756;32;20518;-75
2022/10/31 11:15:59;;;;;;;1.65;1.48;;;18.10;99.90;;;;;;4357731;32;20083;-75
2022/10/31 11:18:30;;;;;;;1.48;1.35;;;18.40;99.90;;;;;;4369331;32;20090;-73
2022/10/31 11:20:59;;;;;;;18.98;2.25;;;18.50;99.90;;;;;;4373766;32;20070;-73
2022/10/31 11:23:26;;;;;;;9.70;2.72;;;18.60;99.90;;;;;;4370922;32;20526;-74
2022/10/31 11:25:57;;;;;;;1.15;1.05;;;18.60;99.90;;;;;;4373712;32;20126;-74
2022/10/31 11:28:23;;;;;;;8.02;2.40;;;18.80;99.90;;;;;;4374695;32;20451;-76
2022/10/31 11:30:58;;;;;;;1.77;1.23;;;19.00;99.90;;;;;;4372321;32;20499;-74
2022/10/31 11:33:32;;;;;;;1.08;0.75;;;19.20;99.90;;;;;;4348400;32;20681;-74
2022/10/31 11:35:59;;;;;;;5.05;1.42;;;19.50;99.90;;;;;;4344074;32;20087;-75
2022/10/31 11:38:34;;;;;;;2.53;1.73;;;19.80;99.90;;;;;;4368913;32;20076;-73
2022/10/31 11:41:09;;;;;;;5.43;2.17;;;19.80;99.90;;;;;;4359671;32;20509;-73
2022/10/31 11:43:35;;;;;;;6.57;3.08;;;20.10;99.90;;;;;;4364403;32;20125;-73
2022/10/31 11:46:09;;;;;;;2.17;1.08;;;20.30;99.90;;;;;;4371755;32;20094;-74
2022/10/31 11:48:36;;;;;;;1.23;0.98;;;20.50;99.90;;;;;;4365740;32;20062;-73
2022/10/31 11:51:03;;;;;;;2.20;1.27;;;20.70;99.90;;;;;;4374118;32;20130;-73
2022/10/31 11:53:32;;;;;;;9.32;2.08;;;20.60;99.90;;;;;;4378490;32;20070;-72
2022/10/31 11:56:12;;;;;;;2.87;1.05;;;20.60;99.90;;;;;;4381586;32;20416;-73
2022/10/31 11:58:38;;;;;;;1.50;1.23;;;20.80;99.90;;;;;;4372673;32;20448;-74
2022/10/31 12:01:03;;;;;;;2.15;1.48;;;20.90;99.90;;;;;;4375741;32;20129;-72
2022/10/31 12:03:57;;;;;;;2.17;1.20;;;20.90;99.90;;;;;;4360762;32;20130;-73
2022/10/31 12:06:28;;;;;;;1.05;0.95;;;21.10;99.90;;;;;;4344184;32;20075;-73
2022/10/31 12:08:53;;;;;;;2.05;1.55;;;21.40;99.90;;;;;;4375416;32;20078;-73
2022/10/31 12:11:30;;;;;;;1.20;1.10;;;21.40;99.90;;;;;;4377713;32;20457;-74
2022/10/31 12:14:14;;;;;;;4.72;1.90;;;21.50;99.90;;;;;;4351445;32;20087;-75
2022/10/31 12:16:52;;;;;;;1.95;1.10;;;21.70;99.90;;;;;;4365009;32;20098;-75
2022/10/31 12:19:37;;;;;;;1.67;1.23;;;21.80;99.90;;;;;;4372401;32;20091;-74
2022/10/31 12:22:09;;;;;;;0.80;0.80;;;21.90;99.90;;;;;;4378615;32;20094;-76
2022/10/31 12:24:54;;;;;;;0.82;0.73;;;22.20;99.90;;;;;;4376504;32;20596;-75
2022/10/31 12:27:28;;;;;;;3.58;1.75;;;22.30;99.90;;;;;;4372742;32;20070;-75
2022/10/31 12:30:16;;;;;;;4.18;1.05;;;22.30;99.90;;;;;;4368771;32;20070;-74
2022/10/31 12:33:10;;;;;;;7.68;1.77;;;22.10;99.90;;;;;;4352983;32;20075;-75
2022/10/31 12:35:56;;;;;;;2.47;2.12;;;22.00;99.90;;;;;;4336734;32;20085;-73
2022/10/31 12:38:50;;;;;;;2.97;1.05;;;22.10;99.90;;;;;;4357084;32;20085;-75
2022/10/31 12:41:43;;;;;;;1.17;0.73;;;22.40;99.90;;;;;;4367057;32;20075;-73
2022/10/31 12:44:30;;;;;;;3.25;1.10;;;22.40;99.90;;;;;;4350725;32;20581;-74
2022/10/31 12:47:30;;;;;;;3.40;1.05;;;22.10;99.90;;;;;;4354721;32;20075;-73
2022/10/31 12:50:20;;;;;;;2.63;1.13;;;22.00;99.90;;;;;;4364543;32;20086;-74
2022/10/31 12:53:14;;;;;;;9.25;2.58;;;21.40;99.90;;;;;;4364540;32;20115;-73
2022/10/31 12:56:05;;;;;;;2.10;1.33;;;20.90;99.90;;;;;;4362965;32;20138;-74
2022/10/31 12:58:36;;;;;;;0.90;0.90;;;20.70;99.90;;;;;;4368399;32;20090;-73
2022/10/31 13:01:10;;;;;;;2.10;1.90;;;20.70;99.90;;;;;;4375984;32;20499;-73